Time;durP1;ratioP1;P1;durP2;ratioP2;P2;SDS_P1;SDS_P2;PMS_P1;PMS_P2;Temp;Humidity;BMP_temperature;BMP_pressure;BME280_temperature;BME280_humidity;BME280_pressure;Samples;Min_cycle;Max_cycle;Signal;HPM_P1;HPM_P2
2022/08/16 00:01:59;;;;;;;29.95;22.35;;;21.70;99.90;;;;;;5041876;28;25110;-73
2022/08/16 00:04:24;;;;;;;24.58;21.67;;;21.70;99.90;;;;;;5030518;28;25207;-72
2022/08/16 00:06:50;;;;;;;28.10;21.45;;;21.70;99.90;;;;;;5040237;28;25074;-73
2022/08/16 00:09:16;;;;;;;24.38;21.67;;;21.70;99.90;;;;;;5041453;28;25108;-73
2022/08/16 00:11:43;;;;;;;25.50;21.67;;;21.70;99.90;;;;;;5045472;28;25120;-72
2022/08/16 00:14:12;;;;;;;24.50;20.92;;;21.60;99.90;;;;;;5043108;28;25135;-73
2022/08/16 00:16:38;;;;;;;24.70;20.58;;;21.70;99.90;;;;;;5028423;28;25065;-72
2022/08/16 00:19:04;;;;;;;22.92;20.42;;;21.60;99.90;;;;;;5044082;28;25087;-73
2022/08/16 00:21:30;;;;;;;22.77;19.73;;;21.60;99.90;;;;;;5045772;28;25061;-74
2022/08/16 00:23:56;;;;;;;27.55;20.48;;;21.60;99.90;;;;;;5036178;28;25077;-73
2022/08/16 00:26:22;;;;;;;24.23;20.73;;;21.60;99.90;;;;;;5042232;28;25133;-73
2022/08/16 00:28:48;;;;;;;22.50;20.30;;;21.70;99.90;;;;;;5042926;28;25075;-74
2022/08/16 00:31:14;;;;;;;26.90;19.83;;;21.70;99.90;;;;;;5043828;28;25099;-73
2022/08/16 00:33:39;;;;;;;22.98;20.52;;;21.60;99.90;;;;;;5044365;28;25094;-73
2022/08/16 00:36:05;;;;;;;25.13;20.85;;;21.60;99.90;;;;;;5035956;28;25142;-74
2022/08/16 00:38:30;;;;;;;27.67;22.23;;;21.60;99.90;;;;;;5044940;28;25078;-74
2022/08/16 00:40:57;;;;;;;23.70;19.95;;;21.50;99.90;;;;;;5043789;28;25072;-74
2022/08/16 00:43:27;;;;;;;24.10;20.67;;;21.50;99.90;;;;;;5026675;28;25053;-73
2022/08/16 00:45:56;;;;;;;25.13;22.42;;;21.40;99.90;;;;;;5043149;28;25109;-73
2022/08/16 00:48:22;;;;;;;22.33;19.98;;;21.30;99.90;;;;;;5043440;28;25054;-73
2022/08/16 00:50:48;;;;;;;25.75;21.65;;;21.40;99.90;;;;;;5035795;28;25087;-73
2022/08/16 00:53:15;;;;;;;26.30;22.40;;;21.40;99.90;;;;;;5041604;28;25133;-74
2022/08/16 00:55:47;;;;;;;25.60;20.75;;;21.30;99.90;;;;;;5032368;28;25063;-73
2022/08/16 00:58:14;;;;;;;22.85;20.35;;;21.40;99.90;;;;;;5025768;28;25085;-73
2022/08/16 01:00:40;;;;;;;23.50;20.40;;;21.30;99.90;;;;;;5043520;28;25131;-73
2022/08/16 01:03:10;;;;;;;26.50;20.83;;;21.30;99.90;;;;;;5024582;28;25069;-73
2022/08/16 01:05:36;;;;;;;27.65;20.90;;;21.30;99.90;;;;;;5041280;28;25163;-74
2022/08/16 01:08:04;;;;;;;24.38;19.75;;;21.30;99.90;;;;;;5022040;28;25149;-73
2022/08/16 01:10:32;;;;;;;22.25;18.42;;;21.20;99.90;;;;;;5042331;28;25051;-73
2022/08/16 01:13:18;;;;;;;23.58;20.08;;;21.30;99.90;;;;;;5044385;28;25086;-73
2022/08/16 01:16:06;;;;;;;19.48;17.40;;;21.30;99.90;;;;;;5042012;28;25159;-73
2022/08/16 01:18:37;;;;;;;22.98;18.33;;;21.30;99.90;;;;;;5044750;28;25062;-74
2022/08/16 01:21:30;;;;;;;25.60;17.83;;;21.30;99.90;;;;;;5049800;28;25063;-72
2022/08/16 01:24:04;;;;;;;;;;;21.30;99.90;;;;;;5031376;28;25056;-73
2022/08/16 01:26:32;;;;;;;21.48;18.38;;;21.20;99.90;;;;;;5042607;28;25065;-75
2022/08/16 01:29:01;;;;;;;23.08;19.05;;;21.20;99.90;;;;;;5043500;28;25059;-73
2022/08/16 01:31:27;;;;;;;21.88;16.60;;;21.20;99.90;;;;;;5045089;28;25064;-74
2022/08/16 01:33:54;;;;;;;21.17;17.90;;;21.30;99.90;;;;;;5039249;28;25081;-72
2022/08/16 01:36:20;;;;;;;21.15;18.02;;;21.20;99.90;;;;;;5043569;28;25070;-73
2022/08/16 01:38:49;;;;;;;29.08;21.67;;;21.20;99.90;;;;;;5044343;28;25054;-72
2022/08/16 01:41:18;;;;;;;22.80;19.02;;;21.10;99.90;;;;;;5043184;28;25060;-73
2022/08/16 01:43:46;;;;;;;22.40;19.30;;;21.10;99.90;;;;;;5040671;28;25228;-72
2022/08/16 01:46:42;;;;;;;23.55;19.33;;;21.10;99.90;;;;;;5039813;28;25062;-73
2022/08/16 01:49:26;;;;;;;24.45;20.55;;;21.10;99.90;;;;;;5021323;28;25614;-73
2022/08/16 01:51:56;;;;;;;24.88;21.42;;;21.00;99.90;;;;;;5036290;28;25160;-73
2022/08/16 01:54:22;;;;;;;25.75;21.70;;;21.00;99.90;;;;;;5040740;28;25121;-73
2022/08/16 01:56:47;;;;;;;26.30;21.92;;;21.00;99.90;;;;;;5037464;28;25069;-72
2022/08/16 01:59:14;;;;;;;27.08;21.33;;;21.00;99.90;;;;;;5042442;28;25125;-72
2022/08/16 02:01:40;;;;;;;29.60;24.25;;;21.10;99.90;;;;;;5036925;28;25071;-73
2022/08/16 02:04:06;;;;;;;32.35;25.15;;;21.10;99.90;;;;;;5045935;28;25064;-73
2022/08/16 02:06:32;;;;;;;32.50;26.70;;;21.00;99.90;;;;;;5046465;28;25057;-73
2022/08/16 02:08:59;;;;;;;31.50;24.90;;;21.00;99.90;;;;;;5024760;28;25043;-73
2022/08/16 02:11:26;;;;;;;28.40;23.73;;;21.00;99.90;;;;;;5049000;28;25201;-74
2022/08/16 02:13:52;;;;;;;32.13;25.75;;;21.00;99.90;;;;;;5040617;28;25069;-72
2022/08/16 02:16:18;;;;;;;30.27;25.05;;;20.90;99.90;;;;;;5047433;28;25133;-72
2022/08/16 02:18:45;;;;;;;34.67;26.48;;;21.00;99.90;;;;;;5023943;28;25084;-73
2022/08/16 02:21:12;;;;;;;32.58;27.63;;;20.90;99.90;;;;;;5049188;28;25057;-74
2022/08/16 02:23:38;;;;;;;30.33;26.90;;;20.80;99.90;;;;;;5047544;28;25157;-74
2022/08/16 02:26:04;;;;;;;33.33;25.40;;;20.90;99.90;;;;;;5047068;28;25067;-73
2022/08/16 02:28:30;;;;;;;33.20;28.35;;;20.90;99.90;;;;;;5043593;28;25069;-72
2022/08/16 02:30:59;;;;;;;34.85;28.17;;;20.90;99.90;;;;;;5053352;28;25064;-72
2022/08/16 02:33:25;;;;;;;31.80;28.30;;;20.90;99.90;;;;;;5052021;28;25055;-72
2022/08/16 02:35:52;;;;;;;39.05;30.38;;;20.80;99.90;;;;;;5045516;28;25085;-71
2022/08/16 02:38:17;;;;;;;37.80;29.75;;;20.80;99.90;;;;;;5047496;28;25158;-72
2022/08/16 02:40:43;;;;;;;36.95;27.40;;;20.80;99.90;;;;;;5046693;28;25064;-73
2022/08/16 02:43:09;;;;;;;34.10;26.42;;;20.90;99.90;;;;;;5035423;28;25056;-73
2022/08/16 02:45:34;;;;;;;33.90;27.65;;;20.90;99.90;;;;;;5044553;28;25083;-73
2022/08/16 02:48:00;;;;;;;34.50;29.80;;;20.80;99.90;;;;;;5051456;28;25199;-73
2022/08/16 02:50:26;;;;;;;39.50;28.15;;;20.90;99.90;;;;;;5047451;28;25107;-74
2022/08/16 02:52:52;;;;;;;36.03;27.30;;;20.90;99.90;;;;;;5046173;28;25168;-72
2022/08/16 02:55:18;;;;;;;34.20;27.60;;;20.90;99.90;;;;;;5046143;28;25082;-72
2022/08/16 02:57:43;;;;;;;41.90;30.92;;;21.00;99.90;;;;;;5052521;28;25077;-73
2022/08/16 03:00:11;;;;;;;36.83;30.00;;;21.00;99.90;;;;;;5054194;28;25055;-74
2022/08/16 03:02:39;;;;;;;34.92;29.73;;;20.90;99.90;;;;;;5049548;28;25072;-73
2022/08/16 03:05:05;;;;;;;37.95;30.27;;;20.90;99.90;;;;;;5037919;28;25147;-74
2022/08/16 03:07:31;;;;;;;38.75;29.45;;;20.80;99.90;;;;;;5050517;28;25058;-74
2022/08/16 03:09:57;;;;;;;37.92;30.55;;;20.80;99.90;;;;;;5048570;28;25078;-74
2022/08/16 03:12:23;;;;;;;39.17;30.67;;;20.80;99.90;;;;;;5050909;28;25149;-73
2022/08/16 03:14:48;;;;;;;36.63;31.23;;;20.80;99.90;;;;;;5042710;28;25060;-73
2022/08/16 03:17:15;;;;;;;37.50;30.25;;;20.80;99.90;;;;;;5038561;28;25128;-74
2022/08/16 03:19:40;;;;;;;40.58;32.60;;;20.80;99.90;;;;;;5042092;28;25168;-73
2022/08/16 03:22:06;;;;;;;37.67;31.75;;;20.80;99.90;;;;;;5045758;28;25175;-73
2022/08/16 03:24:32;;;;;;;40.78;31.80;;;20.80;99.90;;;;;;5040821;28;25062;-73
2022/08/16 03:26:59;;;;;;;40.95;31.15;;;20.70;99.90;;;;;;5039337;28;25071;-73
2022/08/16 03:29:26;;;;;;;40.78;33.35;;;20.70;99.90;;;;;;5044398;28;25067;-74
2022/08/16 03:31:53;;;;;;;41.45;34.08;;;20.70;99.90;;;;;;5044427;28;25144;-73
2022/08/16 03:34:19;;;;;;;40.85;34.92;;;20.60;99.90;;;;;;5016186;28;25066;-73
2022/08/16 03:36:45;;;;;;;46.03;35.33;;;20.60;99.90;;;;;;5046041;28;25079;-73
2022/08/16 03:39:11;;;;;;;45.75;34.78;;;20.50;99.90;;;;;;5042472;28;25078;-73
2022/08/16 03:41:37;;;;;;;47.63;35.03;;;20.50;99.90;;;;;;5045117;28;25100;-74
2022/08/16 03:44:05;;;;;;;44.78;34.60;;;20.60;99.90;;;;;;5025206;28;25095;-73
2022/08/16 03:46:31;;;;;;;48.50;35.53;;;20.40;99.90;;;;;;5042066;28;25062;-73
2022/08/16 03:48:57;;;;;;;43.30;36.95;;;20.40;99.90;;;;;;5042195;28;25157;-73
2022/08/16 03:51:23;;;;;;;44.17;35.75;;;20.40;99.90;;;;;;5045389;28;25082;-73
2022/08/16 03:53:49;;;;;;;45.53;37.63;;;20.40;99.90;;;;;;5043948;28;25061;-72
2022/08/16 03:56:14;;;;;;;47.25;36.65;;;20.50;99.90;;;;;;5038493;28;25052;-73
2022/08/16 03:58:40;;;;;;;46.00;36.45;;;20.40;99.90;;;;;;5046714;28;25046;-72
2022/08/16 04:01:05;;;;;;;51.08;37.33;;;20.40;99.90;;;;;;5051604;28;25058;-73
2022/08/16 04:03:31;;;;;;;45.88;35.30;;;20.40;99.90;;;;;;5027449;28;25073;-72
2022/08/16 04:05:57;;;;;;;49.78;37.58;;;20.40;99.90;;;;;;5056826;28;25085;-73
2022/08/16 04:08:22;;;;;;;46.60;36.05;;;20.40;99.90;;;;;;5049121;28;25095;-73
2022/08/16 04:10:50;;;;;;;46.20;36.45;;;20.40;99.90;;;;;;5046073;28;25083;-72
2022/08/16 04:13:15;;;;;;;43.22;35.70;;;20.40;99.90;;;;;;5036538;28;25058;-73
2022/08/16 04:15:41;;;;;;;47.03;37.33;;;20.30;99.90;;;;;;5019137;28;25050;-72
2022/08/16 04:18:08;;;;;;;49.13;36.58;;;20.30;99.90;;;;;;5017408;28;25070;-72
2022/08/16 04:20:34;;;;;;;49.75;36.20;;;20.20;99.90;;;;;;5039196;28;25080;-72
2022/08/16 04:23:00;;;;;;;43.88;36.10;;;20.30;99.90;;;;;;5040653;28;25079;-71
2022/08/16 04:25:26;;;;;;;58.05;37.67;;;20.20;99.90;;;;;;5019176;28;25052;-72
2022/08/16 04:27:52;;;;;;;45.25;35.03;;;20.20;99.90;;;;;;5040041;28;25140;-72
2022/08/16 04:30:21;;;;;;;43.88;36.40;;;20.40;99.90;;;;;;5037815;28;25168;-72
2022/08/16 04:32:47;;;;;;;43.97;35.63;;;20.40;99.90;;;;;;5043420;28;25043;-73
2022/08/16 04:35:15;;;;;;;43.55;35.38;;;20.30;99.90;;;;;;5045506;28;25058;-73
2022/08/16 04:37:42;;;;;;;44.53;35.15;;;20.30;99.90;;;;;;5040704;28;25060;-72
2022/08/16 04:40:10;;;;;;;41.97;36.03;;;20.30;99.90;;;;;;5045589;28;25074;-72
2022/08/16 04:42:39;;;;;;;42.55;34.85;;;20.30;99.90;;;;;;5044407;28;25101;-72
2022/08/16 04:45:06;;;;;;;43.28;34.28;;;20.20;99.90;;;;;;5051704;28;25101;-73
2022/08/16 04:47:32;;;;;;;45.25;36.33;;;20.20;99.90;;;;;;5020164;28;25081;-72
2022/08/16 04:49:58;;;;;;;41.25;33.47;;;20.20;99.90;;;;;;5047975;28;24958;-73
2022/08/16 04:52:23;;;;;;;45.55;36.50;;;20.20;99.90;;;;;;5043473;28;25069;-72
2022/08/16 04:54:49;;;;;;;47.97;36.67;;;20.20;99.90;;;;;;5051681;28;25122;-72
2022/08/16 04:57:15;;;;;;;43.03;35.67;;;20.20;99.90;;;;;;5048491;28;25076;-72
2022/08/16 04:59:40;;;;;;;45.35;34.97;;;20.20;99.90;;;;;;5045327;28;25051;-72
2022/08/16 05:02:06;;;;;;;42.83;34.70;;;20.20;99.90;;;;;;5050637;28;25077;-72
2022/08/16 05:04:32;;;;;;;44.80;35.13;;;20.20;99.90;;;;;;5042249;28;25149;-72
2022/08/16 05:06:58;;;;;;;45.88;37.05;;;20.30;99.90;;;;;;5053298;28;25079;-73
2022/08/16 05:09:23;;;;;;;45.20;36.40;;;20.20;99.90;;;;;;5041682;28;25068;-72
2022/08/16 05:11:49;;;;;;;45.13;35.15;;;20.20;99.90;;;;;;5044358;28;25483;-73
2022/08/16 05:14:14;;;;;;;48.97;36.72;;;20.30;99.90;;;;;;5049705;28;25098;-72
2022/08/16 05:16:40;;;;;;;44.10;36.92;;;20.30;99.90;;;;;;5052866;28;25113;-73
2022/08/16 05:19:07;;;;;;;53.55;40.70;;;20.30;99.90;;;;;;5051003;28;25102;-72
2022/08/16 05:21:34;;;;;;;50.20;38.70;;;20.30;99.90;;;;;;5048160;28;25100;-72
2022/08/16 05:24:00;;;;;;;42.65;36.90;;;20.40;99.90;;;;;;5048707;28;25072;-74
2022/08/16 05:26:28;;;;;;;42.63;37.20;;;20.40;99.90;;;;;;5049038;28;25054;-73
2022/08/16 05:28:55;;;;;;;44.58;36.03;;;20.40;99.90;;;;;;5041232;28;25048;-73
2022/08/16 05:31:20;;;;;;;48.72;37.13;;;20.40;99.90;;;;;;5034019;28;25075;-74
2022/08/16 05:33:46;;;;;;;38.30;33.92;;;20.50;99.90;;;;;;5022747;28;25140;-74
2022/08/16 05:36:12;;;;;;;39.97;35.55;;;20.60;99.90;;;;;;5035763;28;25077;-73
2022/08/16 05:38:38;;;;;;;44.30;34.80;;;20.70;99.90;;;;;;5037015;28;25081;-74
2022/08/16 05:41:04;;;;;;;45.65;34.33;;;20.70;99.90;;;;;;5017943;28;25047;-73
2022/08/16 05:43:29;;;;;;;50.75;36.80;;;20.70;99.90;;;;;;5021632;28;25102;-72
2022/08/16 05:45:57;;;;;;;44.03;35.13;;;20.70;99.90;;;;;;5044576;28;25049;-71
2022/08/16 05:48:23;;;;;;;46.45;36.53;;;20.60;99.90;;;;;;5043011;28;25060;-73
2022/08/16 05:50:49;;;;;;;42.63;36.55;;;20.50;99.90;;;;;;5033632;28;25059;-74
2022/08/16 05:53:16;;;;;;;48.15;38.25;;;20.40;99.90;;;;;;5033092;28;25126;-73
2022/08/16 05:55:41;;;;;;;42.45;35.78;;;20.40;99.90;;;;;;5058420;28;25067;-72
2022/08/16 05:58:07;;;;;;;42.50;34.83;;;20.40;99.90;;;;;;5058469;28;25074;-71
2022/08/16 06:00:33;;;;;;;53.10;37.10;;;20.40;99.90;;;;;;5034942;28;25095;-73
2022/08/16 06:02:58;;;;;;;49.17;36.28;;;20.30;99.90;;;;;;5031774;28;25084;-73
2022/08/16 06:05:24;;;;;;;45.90;36.85;;;20.30;99.90;;;;;;5023708;28;25073;-73
2022/08/16 06:07:50;;;;;;;45.08;34.45;;;20.50;99.90;;;;;;5047956;28;25078;-73
2022/08/16 06:10:17;;;;;;;43.22;37.85;;;20.50;99.90;;;;;;5045366;28;25092;-73
2022/08/16 06:12:43;;;;;;;46.03;35.90;;;20.50;99.90;;;;;;5053980;28;25075;-73
2022/08/16 06:15:15;;;;;;;46.83;38.10;;;20.50;99.90;;;;;;5051524;28;25054;-72
2022/08/16 06:17:41;;;;;;;;;;;20.50;99.90;;;;;;5053383;28;25054;-73
2022/08/16 06:20:07;;;;;;;45.45;35.42;;;20.60;99.90;;;;;;5037649;28;24099;-72
2022/08/16 06:22:37;;;;;;;49.10;38.80;;;20.70;99.90;;;;;;5032328;28;25054;-74
2022/08/16 06:25:03;;;;;;;53.45;37.75;;;20.70;99.90;;;;;;5037264;28;25150;-74
2022/08/16 06:27:29;;;;;;;52.25;39.90;;;20.90;99.90;;;;;;5056197;28;25113;-73
2022/08/16 06:29:55;;;;;;;49.10;39.10;;;21.00;99.90;;;;;;5043841;28;25097;-72
2022/08/16 06:32:20;;;;;;;46.45;38.13;;;21.00;99.90;;;;;;5053560;28;25099;-73
2022/08/16 06:34:46;;;;;;;51.83;38.97;;;21.10;99.90;;;;;;5047495;28;25089;-73
2022/08/16 06:37:11;;;;;;;53.28;40.33;;;21.20;99.90;;;;;;5051083;28;25076;-74
2022/08/16 06:39:38;;;;;;;46.90;37.80;;;21.20;99.90;;;;;;5058205;28;25064;-74
2022/08/16 06:42:04;;;;;;;49.88;37.05;;;21.30;99.90;;;;;;5037323;28;25124;-74
2022/08/16 06:44:29;;;;;;;50.05;37.83;;;21.40;99.90;;;;;;5037958;28;25094;-71
2022/08/16 06:46:55;;;;;;;49.90;37.10;;;21.50;99.90;;;;;;5031491;28;25101;-72
2022/08/16 06:49:20;;;;;;;46.92;36.65;;;21.60;99.90;;;;;;5056884;28;25063;-72
2022/08/16 06:51:46;;;;;;;48.05;35.20;;;21.60;99.90;;;;;;5058004;28;25068;-71
2022/08/16 06:54:12;;;;;;;45.90;38.70;;;21.50;99.90;;;;;;5054495;28;25078;-71
2022/08/16 06:56:38;;;;;;;43.20;32.88;;;21.40;99.90;;;;;;5037536;28;25064;-71
2022/08/16 06:59:03;;;;;;;45.38;35.78;;;21.40;99.90;;;;;;5039678;28;25096;-72
2022/08/16 07:01:29;;;;;;;42.83;35.63;;;21.50;99.90;;;;;;5039817;28;25074;-72
2022/08/16 07:03:55;;;;;;;44.65;34.60;;;21.60;99.90;;;;;;5036066;28;25059;-72
2022/08/16 07:06:21;;;;;;;47.90;36.80;;;21.70;99.90;;;;;;5028666;28;25060;-72
2022/08/16 07:08:48;;;;;;;49.65;38.22;;;21.70;99.90;;;;;;5036123;28;25087;-72
2022/08/16 07:11:15;;;;;;;45.30;37.95;;;21.80;99.90;;;;;;5037093;28;25116;-71
2022/08/16 07:13:41;;;;;;;39.30;32.58;;;21.50;99.90;;;;;;5030601;28;25071;-72
2022/08/16 07:16:13;;;;;;;44.83;34.95;;;21.60;99.90;;;;;;5009943;28;25091;-72
2022/08/16 07:18:41;;;;;;;48.72;34.95;;;21.60;99.90;;;;;;5035298;28;25129;-73
2022/08/16 07:21:07;;;;;;;40.70;34.25;;;21.70;99.90;;;;;;5029048;28;25086;-73
2022/08/16 07:23:33;;;;;;;45.58;35.40;;;21.70;99.90;;;;;;5040358;28;25105;-70
2022/08/16 07:25:58;;;;;;;46.67;34.90;;;21.70;99.90;;;;;;5046969;28;25167;-71
2022/08/16 07:28:24;;;;;;;47.03;32.28;;;21.80;99.90;;;;;;5045023;28;25041;-73
2022/08/16 07:30:50;;;;;;;41.60;33.75;;;22.10;99.90;;;;;;5049194;28;25061;-71
2022/08/16 07:33:16;;;;;;;45.72;33.67;;;22.40;99.90;;;;;;5048135;28;25060;-71
2022/08/16 07:35:42;;;;;;;40.88;34.38;;;22.20;99.90;;;;;;5030776;28;25132;-72
2022/08/16 07:38:08;;;;;;;39.28;32.67;;;22.30;99.90;;;;;;5059656;28;25060;-71
2022/08/16 07:40:35;;;;;;;44.25;34.58;;;22.50;99.90;;;;;;5052215;28;25073;-71
2022/08/16 07:43:02;;;;;;;39.40;33.17;;;22.50;99.90;;;;;;5050880;28;25148;-73
2022/08/16 07:45:28;;;;;;;43.38;34.13;;;22.70;99.90;;;;;;5055564;28;25114;-70
2022/08/16 07:47:53;;;;;;;48.35;35.05;;;22.50;99.90;;;;;;5038159;28;25100;-74
2022/08/16 07:50:20;;;;;;;43.55;34.72;;;22.60;99.90;;;;;;5040643;28;25058;-72
2022/08/16 07:52:45;;;;;;;41.60;32.97;;;22.70;99.90;;;;;;5048462;28;25063;-71
2022/08/16 07:55:13;;;;;;;41.35;31.10;;;22.90;99.90;;;;;;5037294;28;25063;-72
2022/08/16 07:57:40;;;;;;;44.08;32.28;;;23.20;99.90;;;;;;5035091;28;25084;-73
2022/08/16 08:00:06;;;;;;;38.08;29.70;;;23.30;99.90;;;;;;5047265;28;25155;-70
2022/08/16 08:02:33;;;;;;;35.33;30.52;;;23.40;99.90;;;;;;5054474;28;25118;-71
2022/08/16 08:04:59;;;;;;;35.65;29.00;;;23.60;99.90;;;;;;5065755;28;25052;-72
2022/08/16 08:07:24;;;;;;;39.95;32.92;;;23.70;99.90;;;;;;5084602;28;25060;-75
2022/08/16 08:09:51;;;;;;;40.72;30.10;;;23.40;99.90;;;;;;5074940;28;25064;-75
2022/08/16 08:12:20;;;;;;;38.15;30.48;;;23.60;99.90;;;;;;5052073;28;25180;-74
2022/08/16 08:14:46;;;;;;;35.20;30.38;;;23.80;99.90;;;;;;5049949;28;25072;-74
2022/08/16 08:17:12;;;;;;;36.15;30.08;;;24.00;99.90;;;;;;5055196;28;25050;-75
2022/08/16 08:19:37;;;;;;;41.42;28.83;;;24.40;99.90;;;;;;5052343;28;25155;-75
2022/08/16 08:22:04;;;;;;;39.90;30.17;;;24.50;99.90;;;;;;5048906;28;25056;-74
2022/08/16 08:24:33;;;;;;;35.13;29.27;;;24.60;99.90;;;;;;5055291;28;25054;-73
2022/08/16 08:27:04;;;;;;;39.38;31.35;;;24.70;99.90;;;;;;5067949;28;25063;-76
2022/08/16 08:29:31;;;;;;;30.65;27.35;;;24.90;99.90;;;;;;5044026;28;25129;-75
2022/08/16 08:31:56;;;;;;;32.70;26.75;;;24.80;99.90;;;;;;5057361;28;25053;-74
2022/08/16 08:34:22;;;;;;;35.47;27.63;;;25.20;99.90;;;;;;5054213;28;25052;-74
2022/08/16 08:36:49;;;;;;;35.95;29.77;;;25.40;99.90;;;;;;5053509;28;25067;-75
2022/08/16 08:39:16;;;;;;;33.50;26.75;;;24.90;99.90;;;;;;5051643;28;25069;-73
2022/08/16 08:41:43;;;;;;;31.35;25.67;;;24.70;99.90;;;;;;5048105;28;25079;-72
2022/08/16 08:44:10;;;;;;;35.63;28.58;;;25.00;99.90;;;;;;5047331;28;25049;-72
2022/08/16 08:46:36;;;;;;;30.95;27.50;;;25.00;99.90;;;;;;5054960;28;25053;-73
2022/08/16 08:49:02;;;;;;;30.60;25.63;;;24.90;99.90;;;;;;5050364;28;25043;-72
2022/08/16 08:51:29;;;;;;;29.27;26.25;;;25.00;99.90;;;;;;5045854;28;25074;-73
2022/08/16 08:53:54;;;;;;;30.50;25.48;;;25.10;99.90;;;;;;5037842;28;25096;-73
2022/08/16 08:56:20;;;;;;;34.35;27.10;;;25.20;99.90;;;;;;5057290;28;25156;-74
2022/08/16 08:58:46;;;;;;;34.33;26.73;;;25.40;99.90;;;;;;5062869;28;25154;-72
2022/08/16 09:01:12;;;;;;;39.17;25.08;;;25.60;99.90;;;;;;5028407;28;25066;-73
2022/08/16 09:03:38;;;;;;;30.92;26.40;;;25.90;99.90;;;;;;5046208;28;25055;-73
2022/08/16 09:06:06;;;;;;;35.90;26.42;;;25.90;99.90;;;;;;5044517;28;25064;-72
2022/08/16 09:08:33;;;;;;;34.35;25.90;;;25.90;99.90;;;;;;5049915;28;25064;-71
2022/08/16 09:10:59;;;;;;;31.15;25.80;;;26.00;99.90;;;;;;5045608;28;25045;-73
2022/08/16 09:13:26;;;;;;;28.95;25.02;;;26.30;99.90;;;;;;5043399;28;25067;-73
2022/08/16 09:15:54;;;;;;;27.65;23.10;;;26.10;99.90;;;;;;5043650;28;25068;-75
2022/08/16 09:18:21;;;;;;;27.65;22.67;;;26.10;99.90;;;;;;5044111;28;25068;-72
2022/08/16 09:20:50;;;;;;;26.13;21.83;;;26.20;99.90;;;;;;5037281;28;25058;-73
2022/08/16 09:23:15;;;;;;;29.45;22.30;;;26.30;99.90;;;;;;5036864;28;25103;-73
2022/08/16 09:25:42;;;;;;;28.13;22.42;;;26.40;99.90;;;;;;5050836;28;25129;-72
2022/08/16 09:28:09;;;;;;;30.13;23.48;;;26.10;99.90;;;;;;5052248;28;25096;-74
2022/08/16 09:30:34;;;;;;;28.33;22.33;;;26.10;99.90;;;;;;5034152;28;25098;-74
2022/08/16 09:33:01;;;;;;;28.20;23.50;;;26.10;99.90;;;;;;5044773;28;25103;-73
2022/08/16 09:35:27;;;;;;;27.88;24.50;;;25.90;99.90;;;;;;5044588;28;25148;-73
2022/08/16 09:37:53;;;;;;;29.25;25.20;;;25.80;99.90;;;;;;5054711;28;25096;-73
2022/08/16 09:40:20;;;;;;;32.00;24.48;;;25.80;99.90;;;;;;5049438;28;25100;-74
2022/08/16 09:42:46;;;;;;;27.88;24.63;;;25.90;99.90;;;;;;5047985;28;25092;-73
2022/08/16 09:45:12;;;;;;;36.00;26.88;;;26.10;99.90;;;;;;5050198;28;25059;-74
2022/08/16 09:47:39;;;;;;;35.45;28.75;;;26.00;99.90;;;;;;5047104;28;25103;-73
2022/08/16 09:50:10;;;;;;;28.98;25.88;;;25.90;99.90;;;;;;5040901;28;25129;-73
2022/08/16 09:52:37;;;;;;;36.38;28.60;;;25.80;99.90;;;;;;5052250;28;25126;-71
2022/08/16 09:55:08;;;;;;;32.58;25.02;;;25.60;99.90;;;;;;5038644;28;25084;-73
2022/08/16 09:57:35;;;;;;;31.60;24.30;;;25.60;99.90;;;;;;5047922;28;25067;-72
2022/08/16 10:00:01;;;;;;;28.48;25.42;;;25.90;99.90;;;;;;5050803;28;25063;-72
2022/08/16 10:02:28;;;;;;;33.42;25.58;;;26.30;99.90;;;;;;5046556;28;25110;-73
2022/08/16 10:04:56;;;;;;;29.00;24.60;;;26.50;99.90;;;;;;5035901;28;25054;-74
2022/08/16 10:07:23;;;;;;;31.23;24.50;;;26.80;99.90;;;;;;5058483;28;25068;-72
2022/08/16 10:09:49;;;;;;;32.88;26.23;;;27.10;99.90;;;;;;5047017;28;25080;-73
2022/08/16 10:14:59;;;;;;;26.88;23.65;;;27.50;99.90;;;;;;5033113;28;25059;-72
2022/08/16 10:17:25;;;;;;;31.88;23.98;;;27.30;99.90;;;;;;5040613;28;25109;-74
2022/08/16 10:19:52;;;;;;;30.08;23.83;;;27.30;99.90;;;;;;5048286;28;25092;-74
2022/08/16 10:22:17;;;;;;;31.00;27.65;;;27.50;99.90;;;;;;5050433;28;25062;-72
2022/08/16 10:24:43;;;;;;;29.38;23.60;;;27.10;99.90;;;;;;5057656;28;25100;-74
2022/08/16 10:27:09;;;;;;;30.00;24.40;;;26.80;99.90;;;;;;5055400;28;25077;-72
2022/08/16 10:29:35;;;;;;;29.42;23.70;;;26.80;99.90;;;;;;5043052;28;25075;-73
2022/08/16 10:32:00;;;;;;;35.30;25.60;;;26.90;99.90;;;;;;5056628;28;25165;-72
2022/08/16 10:34:26;;;;;;;33.95;24.35;;;27.00;99.90;;;;;;5046926;28;25064;-72
2022/08/16 10:36:51;;;;;;;30.95;27.00;;;26.90;99.90;;;;;;5047164;28;25099;-76
2022/08/16 10:39:17;;;;;;;27.73;24.58;;;26.90;99.90;;;;;;5053447;28;25082;-73
2022/08/16 10:41:43;;;;;;;29.25;24.58;;;26.70;99.90;;;;;;5047892;28;25156;-73
2022/08/16 10:44:08;;;;;;;27.75;24.75;;;26.50;99.90;;;;;;5055528;28;25081;-73
2022/08/16 10:46:34;;;;;;;31.35;24.75;;;26.60;99.90;;;;;;5047570;28;25097;-73
2022/08/16 10:49:00;;;;;;;34.53;22.40;;;26.90;99.90;;;;;;5047903;28;25185;-72
2022/08/16 10:51:26;;;;;;;32.65;24.50;;;27.20;99.90;;;;;;5038025;28;25071;-76
2022/08/16 10:53:51;;;;;;;26.60;20.90;;;27.10;99.90;;;;;;5083812;28;25093;-75
2022/08/16 10:56:17;;;;;;;30.90;21.00;;;27.70;99.90;;;;;;5066006;28;25089;-73
2022/08/16 10:58:43;;;;;;;30.67;19.23;;;27.60;99.90;;;;;;5054696;28;25078;-74
2022/08/16 11:01:10;;;;;;;30.17;21.67;;;27.50;99.90;;;;;;5063917;28;25056;-75
2022/08/16 11:03:36;;;;;;;23.70;19.13;;;27.70;99.90;;;;;;5065653;28;25057;-77
2022/08/16 11:06:04;;;;;;;21.38;17.50;;;28.10;99.90;;;;;;5072296;28;25065;-73
2022/08/16 11:08:30;;;;;;;23.85;18.33;;;28.30;99.90;;;;;;5074675;28;25074;-75
2022/08/16 11:10:56;;;;;;;26.23;18.27;;;28.30;99.90;;;;;;5059874;28;25096;-75
2022/08/16 11:13:24;;;;;;;20.02;16.10;;;28.50;99.90;;;;;;5052527;28;25136;-75
2022/08/16 11:15:51;;;;;;;20.60;17.13;;;28.70;99.90;;;;;;5044550;28;25101;-76
2022/08/16 11:18:17;;;;;;;23.00;18.02;;;28.80;99.90;;;;;;5037988;28;25094;-76
2022/08/16 11:20:43;;;;;;;29.92;20.90;;;28.90;99.90;;;;;;5049117;28;25164;-73
2022/08/16 11:23:10;;;;;;;23.38;17.30;;;28.70;99.90;;;;;;5053045;28;25115;-74
2022/08/16 11:25:36;;;;;;;18.33;15.60;;;28.80;99.90;;;;;;5033222;28;25109;-74
2022/08/16 11:28:04;;;;;;;19.38;14.43;;;28.80;99.90;;;;;;5060383;28;24705;-73
2022/08/16 11:30:31;;;;;;;18.80;15.15;;;28.90;99.90;;;;;;5048975;28;25147;-74
2022/08/16 11:32:56;;;;;;;24.27;16.20;;;29.30;99.90;;;;;;5056336;28;25078;-75
2022/08/16 11:35:30;;;;;;;24.75;16.85;;;29.40;99.90;;;;;;5052787;28;25075;-76
2022/08/16 11:38:05;;;;;;;23.15;16.02;;;29.40;99.90;;;;;;5053454;28;25077;-74
2022/08/16 11:40:40;;;;;;;23.08;14.38;;;29.20;99.90;;;;;;5042711;28;25072;-74
2022/08/16 11:43:06;;;;;;;17.95;12.70;;;29.10;99.90;;;;;;5054050;28;25066;-76
2022/08/16 11:45:33;;;;;;;24.40;9.45;;;28.70;99.90;;;;;;5054562;28;25073;-74
2022/08/16 11:48:00;;;;;;;16.67;10.82;;;28.50;99.90;;;;;;5040932;28;25051;-74
2022/08/16 11:50:26;;;;;;;21.92;12.10;;;27.90;99.90;;;;;;5044007;28;25149;-74
2022/08/16 11:52:51;;;;;;;16.95;10.52;;;27.30;99.90;;;;;;5050699;28;25092;-73
2022/08/16 11:55:17;;;;;;;14.88;9.23;;;27.30;99.90;;;;;;5050054;28;25105;-74
2022/08/16 11:57:43;;;;;;;13.82;10.00;;;27.40;99.90;;;;;;5051493;28;25053;-74
2022/08/16 12:00:12;;;;;;;11.55;9.27;;;27.20;99.90;;;;;;5058812;28;25140;-75
2022/08/16 12:02:38;;;;;;;15.30;9.52;;;27.20;99.90;;;;;;5049477;28;25075;-74
2022/08/16 12:05:06;;;;;;;12.63;8.90;;;27.20;99.90;;;;;;5059682;28;25097;-74
2022/08/16 12:07:32;;;;;;;13.93;9.05;;;27.20;99.90;;;;;;5026320;28;25098;-74
2022/08/16 12:09:58;;;;;;;13.38;8.18;;;27.20;99.90;;;;;;5046587;28;25074;-75
2022/08/16 12:12:25;;;;;;;13.00;8.80;;;27.20;99.90;;;;;;5050159;28;25168;-75
2022/08/16 12:14:51;;;;;;;12.07;9.23;;;27.10;99.90;;;;;;5050181;28;25081;-73
2022/08/16 12:17:18;;;;;;;11.68;8.38;;;27.00;99.90;;;;;;5030997;28;25149;-75
2022/08/16 12:19:44;;;;;;;11.73;8.95;;;26.90;99.90;;;;;;5050554;28;25080;-75
2022/08/16 12:22:10;;;;;;;14.07;9.93;;;27.00;99.90;;;;;;5055095;28;25059;-75
2022/08/16 12:24:36;;;;;;;13.02;9.02;;;27.00;99.90;;;;;;5047577;28;25102;-74
2022/08/16 12:27:02;;;;;;;16.58;9.75;;;27.20;99.90;;;;;;5048291;28;25171;-73
2022/08/16 12:29:28;;;;;;;16.52;10.20;;;27.10;99.90;;;;;;5043689;28;25123;-75